createdAt,value
2017-03-22T08:02:23.580Z,2.69
2017-03-22T08:03:04.156Z,2.86
2017-03-22T08:03:44.750Z,2.89
2017-03-22T08:04:25.303Z,2.82
2017-03-22T08:05:05.874Z,2.85
2017-03-22T08:05:46.441Z,2.79
2017-03-22T08:06:27.022Z,2.83
2017-03-22T08:07:08.600Z,2.93
2017-03-22T08:07:49.176Z,2.92
2017-03-22T08:08:29.757Z,3.05
2017-03-22T08:09:10.318Z,3.07
2017-03-22T08:09:50.903Z,3.05
2017-03-22T08:10:31.455Z,3.18
2017-03-22T08:11:12.027Z,3.07
2017-03-22T08:11:52.609Z,3.1
2017-03-22T08:12:33.178Z,3.22
2017-03-22T08:13:13.739Z,3.26
2017-03-22T08:13:54.391Z,3.25
2017-03-22T08:14:36.925Z,3.13
2017-03-22T08:15:17.503Z,3.31
2017-03-22T08:15:58.071Z,3.4
2017-03-22T08:16:38.644Z,3.4
2017-03-22T08:17:19.228Z,3.44
2017-03-22T08:17:59.829Z,3.5
2017-03-22T08:18:40.414Z,3.5
2017-03-22T08:19:20.988Z,3.56
2017-03-22T08:20:01.586Z,3.58
2017-03-22T08:20:42.154Z,3.63
2017-03-22T08:21:22.721Z,3.63
2017-03-22T08:22:03.298Z,3.59
2017-03-22T08:22:43.851Z,3.65
2017-03-22T08:23:24.435Z,3.65
2017-03-22T08:24:05.003Z,3.68
2017-03-22T08:24:45.582Z,3.68
2017-03-22T08:25:26.161Z,3.73
2017-03-22T08:26:06.728Z,3.84
2017-03-22T08:26:47.340Z,3.88
2017-03-22T08:27:27.928Z,3.87
2017-03-22T08:28:08.518Z,3.94
2017-03-22T08:28:49.091Z,3.98
2017-03-22T08:29:30.693Z,3.98
2017-03-22T08:30:11.252Z,3.96
2017-03-22T08:30:53.812Z,4.02
2017-03-22T08:31:34.378Z,4.12
2017-03-22T08:32:14.960Z,4.23
2017-03-22T08:32:55.519Z,4.2
2017-03-22T08:33:36.102Z,4.28
2017-03-22T08:34:16.685Z,4.32
2017-03-22T08:34:57.272Z,4.34
2017-03-22T08:35:37.829Z,4.41
2017-03-22T08:36:19.406Z,4.41
2017-03-22T08:37:02.007Z,4.48
2017-03-22T08:37:43.572Z,4.49
2017-03-22T08:38:24.187Z,4.59
2017-03-22T08:39:06.747Z,4.56
2017-03-22T08:39:47.352Z,4.7
2017-03-22T08:40:27.911Z,4.67
2017-03-22T08:41:08.523Z,4.68
2017-03-22T08:41:49.108Z,4.73
2017-03-22T08:42:29.680Z,4.74
2017-03-22T08:43:10.253Z,4.84
2017-03-22T08:43:50.813Z,4.84
2017-03-22T08:44:32.369Z,4.89
2017-03-22T08:45:17.621Z,4.96
2017-03-22T08:45:58.190Z,4.97
2017-03-22T08:46:38.774Z,4.96
2017-03-22T08:47:19.356Z,5.05
2017-03-22T08:47:59.916Z,5.02
2017-03-22T08:48:40.548Z,5.1
2017-03-22T08:49:21.118Z,5.21
2017-03-22T08:50:02.783Z,5.26
2017-03-22T08:50:43.372Z,5.18
2017-03-22T08:51:23.954Z,5.2
2017-03-22T08:52:04.596Z,5.28
2017-03-22T08:52:50.174Z,5.36
2017-03-22T08:53:31.767Z,5.39
2017-03-22T08:54:12.333Z,5.38
2017-03-22T08:54:52.925Z,5.44
2017-03-22T08:55:33.552Z,5.38
2017-03-22T08:56:14.134Z,5.57
2017-03-22T08:56:54.730Z,5.61
2017-03-22T08:57:35.296Z,5.65
2017-03-22T08:58:16.876Z,5.66
2017-03-22T08:58:57.456Z,5.68
2017-03-22T08:59:38.028Z,5.75
2017-03-22T09:00:18.642Z,5.76
2017-03-22T09:01:00.331Z,5.82
2017-03-22T09:01:41.909Z,5.83
2017-03-22T09:02:22.473Z,5.97
2017-03-22T09:03:03.049Z,5.9
2017-03-22T09:03:43.664Z,5.97
2017-03-22T09:04:24.251Z,5.99
2017-03-22T09:05:04.792Z,5.99
2017-03-22T09:05:45.356Z,6.02
2017-03-22T09:06:25.949Z,6.11
2017-03-22T09:07:07.515Z,6.02
2017-03-22T09:07:48.082Z,6.08
2017-03-22T09:08:28.668Z,6.09
2017-03-22T09:09:13.802Z,6.07
2017-03-22T09:09:54.380Z,6.16
2017-03-22T09:10:34.955Z,6.16
2017-03-22T09:11:15.518Z,6.17
2017-03-22T09:11:58.090Z,6.3
2017-03-22T09:12:38.664Z,6.33
2017-03-22T09:13:20.248Z,6.42
2017-03-22T09:14:02.848Z,6.49
2017-03-22T09:14:43.411Z,6.51
2017-03-22T09:15:24.037Z,6.62
2017-03-22T09:16:04.601Z,6.59
2017-03-22T09:16:46.177Z,6.62
2017-03-22T09:17:26.749Z,6.69
2017-03-22T09:18:07.313Z,6.59
2017-03-22T09:18:52.418Z,6.62
2017-03-22T09:19:37.807Z,6.69
2017-03-22T09:20:18.362Z,6.74
2017-03-22T09:20:58.961Z,6.77
2017-03-22T09:21:40.543Z,6.77
2017-03-22T09:22:21.125Z,6.81
2017-03-22T09:23:01.693Z,6.82
2017-03-22T09:23:42.245Z,6.79
2017-03-22T09:24:22.806Z,6.99
2017-03-22T09:25:03.387Z,6.97
2017-03-22T09:25:44.954Z,6.93
2017-03-22T09:26:25.528Z,7
2017-03-22T09:27:06.138Z,7
2017-03-22T09:27:48.663Z,7
2017-03-22T09:28:35.916Z,7.05
2017-03-22T09:29:21.308Z,6.99
2017-03-22T09:30:01.875Z,7.06
2017-03-22T09:30:42.496Z,7.15
2017-03-22T09:31:23.088Z,7.2
2017-03-22T09:32:04.671Z,7.18
2017-03-22T09:32:45.274Z,7.18
2017-03-22T09:33:30.637Z,7.2
2017-03-22T09:34:11.238Z,7.33
2017-03-22T09:34:51.820Z,7.33
2017-03-22T09:35:32.377Z,7.36
2017-03-22T09:36:12.975Z,7.4
2017-03-22T09:36:53.563Z,7.43
2017-03-22T09:37:34.095Z,7.43
2017-03-22T09:38:14.695Z,7.45
2017-03-22T09:38:56.276Z,7.45
2017-03-22T09:39:37.869Z,7.51
2017-03-22T09:40:18.464Z,7.56
2017-03-22T09:41:00.051Z,7.51
2017-03-22T09:41:40.605Z,7.6
2017-03-22T09:42:21.176Z,7.54
2017-03-22T09:43:01.756Z,7.47
2017-03-22T09:43:44.351Z,7.54
2017-03-22T09:44:25.066Z,7.57
2017-03-22T09:45:05.619Z,7.6
2017-03-22T09:45:46.189Z,7.57
2017-03-22T09:46:26.756Z,7.72
2017-03-22T09:47:07.340Z,7.69
2017-03-22T09:47:48.466Z,7.79
2017-03-22T09:48:30.101Z,7.94
2017-03-22T09:49:11.188Z,7.94
2017-03-22T09:49:52.905Z,7.9
2017-03-22T09:50:35.094Z,8.06
2017-03-22T09:51:16.617Z,8.01
2017-03-22T09:52:02.136Z,8.01
2017-03-22T09:52:42.714Z,8.01
2017-03-22T09:53:24.309Z,8.05
2017-03-22T09:54:04.856Z,8.12
2017-03-22T09:54:51.121Z,8.06
2017-03-22T09:55:31.735Z,8.09
2017-03-22T09:56:12.322Z,8.13
2017-03-22T09:56:52.932Z,8.15
2017-03-22T09:57:33.515Z,8.16
2017-03-22T09:58:16.115Z,8.13
2017-03-22T09:58:56.673Z,8.16
2017-03-22T09:59:39.282Z,8.24
2017-03-22T10:00:20.900Z,8.27
2017-03-22T10:01:01.513Z,8.41
2017-03-22T10:01:42.158Z,8.33
2017-03-22T10:02:24.762Z,8.45
2017-03-22T10:03:05.417Z,8.52
2017-03-22T10:03:46.094Z,8.49
2017-03-22T10:04:27.740Z,8.58
2017-03-22T10:05:08.412Z,8.63
2017-03-22T10:05:49.171Z,8.66
2017-03-22T10:06:31.040Z,8.73
2017-03-22T10:07:12.265Z,8.69
2017-03-22T10:07:53.510Z,8.82
2017-03-22T10:08:34.466Z,8.84
2017-03-22T10:09:15.784Z,8.91
2017-03-22T10:09:56.758Z,8.99
2017-03-22T10:10:38.059Z,8.97
2017-03-22T10:11:18.710Z,9.03
2017-03-22T10:11:59.306Z,9.08
2017-03-22T10:12:39.888Z,9.1
2017-03-22T10:13:20.534Z,9.16
2017-03-22T10:14:01.174Z,9.22
2017-03-22T10:14:41.837Z,9.21
2017-03-22T10:15:22.481Z,9.21
2017-03-22T10:16:03.170Z,9.23
2017-03-22T10:16:43.795Z,9.26
2017-03-22T10:17:24.486Z,9.23
2017-03-22T10:18:05.110Z,9.28
2017-03-22T10:18:45.790Z,9.29
2017-03-22T10:19:26.492Z,9.28
2017-03-22T10:20:07.065Z,9.23
2017-03-22T10:20:47.712Z,9.37
2017-03-22T10:21:28.320Z,9.41
2017-03-22T10:22:09.003Z,9.4
2017-03-22T10:22:49.610Z,9.4
2017-03-22T10:23:30.232Z,9.5
2017-03-22T10:24:10.897Z,9.56
2017-03-22T10:24:51.533Z,9.55
2017-03-22T10:25:32.222Z,9.55
2017-03-22T10:26:12.843Z,9.65
2017-03-22T10:26:54.512Z,9.62
2017-03-22T10:27:35.162Z,9.66
2017-03-22T10:28:16.573Z,9.66
2017-03-22T10:28:57.581Z,9.64
2017-03-22T10:29:38.675Z,9.66
2017-03-22T10:30:20.542Z,9.66
2017-03-22T10:31:02.276Z,9.68
2017-03-22T10:31:44.257Z,9.69
2017-03-22T10:32:25.980Z,9.65
2017-03-22T10:33:06.822Z,9.79
2017-03-22T10:33:47.934Z,9.74
2017-03-22T10:34:29.438Z,9.79
2017-03-22T10:35:10.520Z,9.84
2017-03-22T10:35:51.098Z,9.87
2017-03-22T10:36:31.746Z,9.84
2017-03-22T10:37:12.340Z,9.86
2017-03-22T10:37:52.926Z,9.99
2017-03-22T10:38:33.590Z,9.95
2017-03-22T10:39:14.587Z,9.99
2017-03-22T10:39:55.901Z,10.02
2017-03-22T10:40:37.468Z,9.94
2017-03-22T10:41:18.475Z,9.95
2017-03-22T10:41:59.793Z,9.95
2017-03-22T10:42:41.050Z,9.95
2017-03-22T10:43:22.676Z,9.92
2017-03-22T10:44:04.637Z,10.02
2017-03-22T10:44:46.195Z,9.94
2017-03-22T10:45:28.130Z,9.97
2017-03-22T10:46:09.419Z,10.17
2017-03-22T10:46:51.389Z,10.09
2017-03-22T10:47:35.641Z,10.13
2017-03-22T10:48:22.373Z,10.22
2017-03-22T10:49:03.522Z,10.22
2017-03-22T10:49:45.519Z,10.25
2017-03-22T10:50:28.199Z,10.35
2017-03-22T10:51:09.195Z,10.42
2017-03-22T10:51:49.774Z,10.44
2017-03-22T10:52:31.432Z,10.38
2017-03-22T10:53:13.099Z,10.42
2017-03-22T10:53:53.691Z,10.41
2017-03-22T10:54:34.322Z,10.4
2017-03-22T10:55:14.982Z,10.44
2017-03-22T10:55:55.621Z,10.4
2017-03-22T10:56:36.289Z,10.44
2017-03-22T10:57:17.952Z,10.49
2017-03-22T10:57:58.643Z,10.54
2017-03-22T10:58:40.328Z,10.6
2017-03-22T10:59:20.924Z,10.57
2017-03-22T11:00:01.498Z,10.68
2017-03-22T11:00:42.142Z,10.67
2017-03-22T11:01:22.740Z,10.71
2017-03-22T11:02:03.366Z,10.71
2017-03-22T11:02:43.931Z,10.69
2017-03-22T11:03:24.554Z,10.81
2017-03-22T11:04:05.203Z,10.79
2017-03-22T11:04:45.857Z,10.86
2017-03-22T11:05:26.535Z,10.86
2017-03-22T11:06:08.221Z,10.87
2017-03-22T11:06:48.859Z,10.9
2017-03-22T11:07:30.982Z,10.9
2017-03-22T11:08:11.589Z,10.87
2017-03-22T11:08:52.241Z,10.89
2017-03-22T11:09:32.894Z,10.89
2017-03-22T11:10:13.555Z,10.89
2017-03-22T11:10:54.199Z,11.02
2017-03-22T11:11:35.058Z,11
2017-03-22T11:12:15.730Z,10.92
2017-03-22T11:12:56.363Z,10.97
2017-03-22T11:13:37.030Z,10.93
2017-03-22T11:14:17.667Z,10.97
2017-03-22T11:14:58.307Z,10.96
2017-03-22T11:15:38.959Z,11.02
2017-03-22T11:16:19.643Z,11.04
2017-03-22T11:17:00.296Z,10.97
2017-03-22T11:17:40.919Z,11.08
2017-03-22T11:18:21.596Z,11.05
2017-03-22T11:19:02.278Z,11.14
2017-03-22T11:19:42.971Z,11.12
2017-03-22T11:20:23.545Z,11.12
2017-03-22T11:21:04.209Z,11.11
2017-03-22T11:21:44.897Z,11.14
2017-03-22T11:22:26.604Z,11.14
2017-03-22T11:23:07.176Z,11.12
2017-03-22T11:23:47.835Z,11.15
2017-03-22T11:24:28.523Z,11.17
2017-03-22T11:25:09.114Z,11.14
2017-03-22T11:25:49.664Z,11.12
2017-03-22T11:26:30.355Z,11
2017-03-22T11:27:11.025Z,11
2017-03-22T11:27:51.626Z,11.02
2017-03-22T11:28:32.338Z,11
2017-03-22T11:29:12.950Z,10.99
2017-03-22T11:29:53.547Z,10.89
2017-03-22T11:30:34.233Z,10.93
2017-03-22T11:31:14.810Z,10.87
2017-03-22T11:31:55.442Z,10.72
2017-03-22T11:32:36.058Z,10.82
2017-03-22T11:33:16.642Z,10.87
2017-03-22T11:33:57.297Z,10.78
2017-03-22T11:34:37.977Z,10.79
2017-03-22T11:35:18.600Z,10.78
2017-03-22T11:35:59.254Z,10.71
2017-03-22T11:36:39.903Z,10.79
2017-03-22T11:37:21.584Z,10.72
2017-03-22T11:38:02.237Z,10.86
2017-03-22T11:38:42.888Z,10.86
2017-03-22T11:39:23.544Z,10.93
2017-03-22T11:40:04.202Z,11.02
2017-03-22T11:40:44.850Z,11.02
2017-03-22T11:41:25.497Z,11.02
2017-03-22T11:42:06.152Z,11.07
2017-03-22T11:42:46.720Z,11.17
2017-03-22T11:43:27.321Z,11.23
2017-03-22T11:44:07.912Z,11.35
2017-03-22T11:44:48.466Z,11.43
2017-03-22T11:45:29.037Z,11.48
2017-03-22T11:46:09.595Z,11.62
2017-03-22T11:46:50.191Z,11.8
2017-03-22T11:47:30.764Z,11.84
2017-03-22T11:48:11.338Z,11.9
2017-03-22T11:48:52.909Z,12.09
2017-03-22T11:49:33.495Z,12.25
2017-03-22T11:50:14.058Z,12.31
2017-03-22T11:50:54.646Z,12.45
2017-03-22T11:51:35.256Z,12.47
2017-03-22T11:52:15.859Z,12.54
2017-03-22T11:52:56.449Z,12.76
2017-03-22T11:53:37.025Z,12.83
2017-03-22T11:54:17.598Z,12.94
2017-03-22T11:54:58.159Z,13.08
2017-03-22T11:55:38.758Z,13.18
2017-03-22T11:56:19.336Z,13.28
2017-03-22T11:56:59.904Z,13.37
2017-03-22T11:57:40.481Z,13.39
2017-03-22T11:58:21.059Z,13.44
2017-03-22T11:59:01.630Z,13.46
2017-03-22T11:59:42.233Z,13.54
2017-03-22T12:00:22.812Z,13.54
2017-03-22T12:01:03.384Z,13.68
2017-03-22T12:01:43.998Z,13.72
2017-03-22T12:02:24.574Z,13.72
2017-03-22T12:03:05.147Z,13.67
2017-03-22T12:03:45.714Z,13.72
2017-03-22T12:04:26.677Z,13.79
2017-03-22T12:05:07.275Z,13.85
2017-03-22T12:05:47.858Z,13.83
2017-03-22T12:06:28.423Z,13.79
2017-03-22T12:07:08.988Z,13.85
2017-03-22T12:07:49.569Z,13.87
2017-03-22T12:08:30.140Z,13.86
2017-03-22T12:09:10.704Z,13.85
2017-03-22T12:09:52.315Z,13.81
2017-03-22T12:10:32.948Z,13.87
2017-03-22T12:11:13.516Z,13.71
2017-03-22T12:11:54.097Z,13.77
2017-03-22T12:12:34.671Z,13.78
2017-03-22T12:13:15.254Z,13.77
2017-03-22T12:13:55.822Z,13.67
2017-03-22T12:14:36.402Z,13.68
2017-03-22T12:15:17.001Z,13.7
2017-03-22T12:15:57.540Z,13.59
2017-03-22T12:16:38.114Z,13.63
2017-03-22T12:17:18.684Z,13.65
2017-03-22T12:17:59.249Z,13.75
2017-03-22T12:18:39.822Z,13.7
2017-03-22T12:19:20.410Z,13.68
2017-03-22T12:20:00.978Z,13.7
2017-03-22T12:20:41.556Z,13.67
2017-03-22T12:21:22.184Z,13.72
2017-03-22T12:22:02.753Z,13.75
2017-03-22T12:22:44.334Z,13.77
2017-03-22T12:23:24.902Z,13.86
2017-03-22T12:24:05.479Z,13.86
2017-03-22T12:24:46.065Z,13.97
2017-03-22T12:25:26.663Z,13.93
2017-03-22T12:26:07.243Z,14.05
2017-03-22T12:26:47.814Z,14.15
2017-03-22T12:27:28.398Z,14.08
2017-03-22T12:28:09.971Z,14.15
2017-03-22T12:28:50.574Z,14.14
2017-03-22T12:29:31.144Z,14.2
2017-03-22T12:30:11.736Z,14.23
2017-03-22T12:30:52.317Z,14.32
2017-03-22T12:31:32.920Z,14.28
2017-03-22T12:32:13.489Z,14.44
2017-03-22T12:32:54.071Z,14.37
2017-03-22T12:33:34.620Z,14.4
2017-03-22T12:34:15.209Z,14.45
2017-03-22T12:34:55.789Z,14.45
2017-03-22T12:35:36.358Z,14.5
2017-03-22T12:36:16.945Z,14.5
2017-03-22T12:36:57.508Z,14.44
2017-03-22T12:37:38.095Z,14.45
2017-03-22T12:38:18.685Z,14.53
2017-03-22T12:38:59.265Z,14.54
2017-03-22T12:39:40.899Z,14.59
2017-03-22T12:40:21.493Z,14.58
2017-03-22T12:41:02.055Z,14.63
2017-03-22T12:41:43.643Z,14.6
2017-03-22T12:42:25.310Z,14.6
2017-03-22T12:43:05.880Z,14.7
2017-03-22T12:43:46.471Z,14.7
2017-03-22T12:44:27.047Z,14.68
2017-03-22T12:45:07.615Z,14.68
2017-03-22T12:45:48.185Z,14.78
2017-03-22T12:46:28.785Z,14.77
2017-03-22T12:47:09.349Z,14.82
2017-03-22T12:47:49.929Z,14.73
2017-03-22T12:48:30.519Z,14.84
2017-03-22T12:49:11.090Z,14.94
2017-03-22T12:49:51.657Z,15.03
2017-03-22T12:50:32.201Z,14.97
2017-03-22T12:51:12.799Z,15.09
2017-03-22T12:51:53.383Z,15.09
2017-03-22T12:52:33.980Z,15.21
2017-03-22T12:53:14.568Z,15.24
2017-03-22T12:53:55.152Z,15.25
2017-03-22T12:54:35.728Z,15.15
2017-03-22T12:55:16.304Z,15.17
2017-03-22T12:55:56.873Z,15.14
2017-03-22T12:56:37.449Z,15.06
2017-03-22T12:57:18.022Z,15.03
2017-03-22T12:57:58.589Z,14.99
2017-03-22T12:58:39.246Z,15
2017-03-22T12:59:19.847Z,14.96
2017-03-22T13:00:00.421Z,15.02
2017-03-22T13:00:41.009Z,14.91
2017-03-22T13:01:21.623Z,14.94
2017-03-22T13:02:02.183Z,14.82
2017-03-22T13:02:42.762Z,14.78
2017-03-22T13:03:23.341Z,14.72
2017-03-22T13:04:03.921Z,14.72
2017-03-22T13:04:44.506Z,14.68
2017-03-22T13:05:25.127Z,14.62
2017-03-22T13:06:05.705Z,14.59
2017-03-22T13:06:46.307Z,14.62
2017-03-22T13:07:26.878Z,14.59
2017-03-22T13:08:07.452Z,14.59
2017-03-22T13:08:48.036Z,14.55
2017-03-22T13:09:28.706Z,14.62
2017-03-22T13:10:09.317Z,14.62
2017-03-22T13:10:49.883Z,14.66
2017-03-22T13:11:30.468Z,14.73
2017-03-22T13:12:11.082Z,14.78
2017-03-22T13:12:51.662Z,14.78
2017-03-22T13:13:32.244Z,14.96
2017-03-22T13:14:12.820Z,14.88
2017-03-22T13:14:53.389Z,14.97
2017-03-22T13:15:33.974Z,15.06
